Time;durP1;ratioP1;P1;durP2;ratioP2;P2;SDS_P1;SDS_P2;PMS_P1;PMS_P2;Temp;Humidity;BMP_temperature;BMP_pressure;BME280_temperature;BME280_humidity;BME280_pressure;Samples;Min_cycle;Max_cycle;Signal;HPM_P1;HPM_P2
2022/04/05 00:02:00;;;;;;;6.25;1.73;;;7.20;99.90;;;;;;4994350;28;20613;-76
2022/04/05 00:04:26;;;;;;;1.02;0.60;;;7.20;99.90;;;;;;5011922;28;20046;-76
2022/04/05 00:06:51;;;;;;;3.08;0.82;;;7.20;99.90;;;;;;4988122;28;20065;-76
2022/04/05 00:09:17;;;;;;;1.23;1.13;;;7.10;99.90;;;;;;5004767;28;20041;-76
2022/04/05 00:11:42;;;;;;;6.30;1.45;;;7.10;99.90;;;;;;5010316;28;20052;-76
2022/04/05 00:14:09;;;;;;;3.90;1.15;;;7.10;99.90;;;;;;5013130;28;20520;-76
2022/04/05 00:16:34;;;;;;;2.05;0.65;;;7.10;99.90;;;;;;4996520;28;20041;-76
2022/04/05 00:19:00;;;;;;;0.68;0.68;;;7.10;99.90;;;;;;4992541;28;20041;-76
2022/04/05 00:21:26;;;;;;;1.63;0.82;;;7.10;99.90;;;;;;5007306;28;20588;-75
2022/04/05 00:23:51;;;;;;;1.23;0.98;;;7.10;99.90;;;;;;4995635;28;20041;-76
2022/04/05 00:26:17;;;;;;;19.00;2.13;;;7.10;99.90;;;;;;4996357;28;20132;-75
2022/04/05 00:28:42;;;;;;;3.90;1.00;;;7.10;99.90;;;;;;4994693;28;20049;-76
2022/04/05 00:31:08;;;;;;;18.00;1.67;;;7.10;99.90;;;;;;5008415;28;20399;-75
2022/04/05 00:33:33;;;;;;;7.68;1.38;;;7.10;99.90;;;;;;5002483;28;20061;-76
2022/04/05 00:36:00;;;;;;;5.30;1.10;;;7.10;99.90;;;;;;5002418;28;20041;-75
2022/04/05 00:38:25;;;;;;;1.02;0.60;;;7.10;99.90;;;;;;4996204;28;20049;-76
2022/04/05 00:40:51;;;;;;;3.10;1.00;;;7.10;99.90;;;;;;4993945;28;20034;-76
2022/04/05 00:43:17;;;;;;;4.28;1.15;;;7.10;99.90;;;;;;5012988;28;20456;-76
2022/04/05 00:45:42;;;;;;;0.80;0.80;;;7.10;99.90;;;;;;5012163;28;20144;-76
2022/04/05 00:48:08;;;;;;;0.43;0.38;;;7.10;99.90;;;;;;5011707;28;20489;-76
2022/04/05 00:50:38;;;;;;;0.70;0.70;;;7.00;99.90;;;;;;4991964;28;20064;-75
2022/04/05 00:53:07;;;;;;;2.33;0.63;;;7.00;99.90;;;;;;4992853;28;20046;-76
2022/04/05 00:55:34;;;;;;;3.53;1.02;;;7.00;99.90;;;;;;4992971;28;20038;-75
2022/04/05 00:58:02;;;;;;;7.22;1.65;;;7.00;99.90;;;;;;5011805;28;20125;-75
2022/04/05 01:00:27;;;;;;;3.75;0.85;;;7.00;99.90;;;;;;5011556;28;20443;-75
2022/04/05 01:02:56;;;;;;;4.57;1.15;;;7.00;99.90;;;;;;5013009;28;20041;-75
2022/04/05 01:05:25;;;;;;;3.03;1.63;;;7.00;99.90;;;;;;4982407;28;20077;-75
2022/04/05 01:07:51;;;;;;;3.30;0.70;;;7.00;99.90;;;;;;5008586;28;20490;-76
2022/04/05 01:10:17;;;;;;;2.97;0.75;;;7.10;99.90;;;;;;5007094;28;20038;-75
2022/04/05 01:12:42;;;;;;;5.13;1.05;;;7.10;99.90;;;;;;5001265;28;20064;-76
2022/04/05 01:15:09;;;;;;;1.52;0.73;;;7.10;99.90;;;;;;4995852;28;20041;-75
2022/04/05 01:17:35;;;;;;;3.90;1.23;;;7.00;99.90;;;;;;5009143;28;20052;-75
2022/04/05 01:20:01;;;;;;;9.52;0.70;;;7.00;99.90;;;;;;5007185;28;20045;-76
2022/04/05 01:22:27;;;;;;;9.57;2.15;;;7.10;99.90;;;;;;5012119;28;20455;-76
2022/04/05 01:24:52;;;;;;;5.35;2.50;;;7.00;99.90;;;;;;5009073;28;20172;-76
2022/04/05 01:27:19;;;;;;;0.60;0.60;;;7.00;99.90;;;;;;5004956;28;20041;-76
2022/04/05 01:29:46;;;;;;;3.00;1.10;;;7.00;99.90;;;;;;4995530;28;20041;-75
2022/04/05 01:32:11;;;;;;;0.40;0.40;;;7.00;99.90;;;;;;5027853;28;20072;-76
2022/04/05 01:34:38;;;;;;;1.40;1.20;;;7.00;99.90;;;;;;4994840;28;20118;-76
2022/04/05 01:37:06;;;;;;;8.57;0.82;;;7.00;99.90;;;;;;5008904;28;20041;-76
2022/04/05 01:39:33;;;;;;;8.50;2.10;;;7.00;99.90;;;;;;4995130;28;20067;-76
2022/04/05 01:42:00;;;;;;;9.43;1.85;;;7.00;99.90;;;;;;5011288;28;20046;-75
2022/04/05 01:44:28;;;;;;;2.05;0.70;;;7.00;99.90;;;;;;4994735;28;20543;-76
2022/04/05 01:46:54;;;;;;;9.32;1.60;;;7.10;99.90;;;;;;4994860;28;20041;-76
2022/04/05 01:49:20;;;;;;;9.95;2.65;;;7.10;99.90;;;;;;4994762;28;20048;-75
2022/04/05 01:51:46;;;;;;;0.70;0.70;;;7.10;99.90;;;;;;4994921;28;20504;-76
2022/04/05 01:54:15;;;;;;;2.05;0.60;;;7.10;99.90;;;;;;5011025;28;20042;-75
2022/04/05 01:56:43;;;;;;;7.63;1.15;;;7.00;99.90;;;;;;5008753;28;20041;-76
2022/04/05 01:59:11;;;;;;;6.25;3.30;;;7.10;99.90;;;;;;4998401;28;20040;-76
2022/04/05 02:01:36;;;;;;;0.65;0.63;;;7.00;99.90;;;;;;5011313;28;20037;-76
2022/04/05 02:04:02;;;;;;;5.28;1.48;;;7.00;99.90;;;;;;5008909;28;20132;-75
2022/04/05 02:06:28;;;;;;;4.88;1.48;;;7.00;99.90;;;;;;5023064;28;20056;-76
2022/04/05 02:08:54;;;;;;;0.57;0.55;;;7.00;99.90;;;;;;5011517;28;20405;-75
2022/04/05 02:11:19;;;;;;;2.58;1.00;;;7.10;99.90;;;;;;5007911;28;20046;-76
2022/04/05 02:13:45;;;;;;;3.55;1.23;;;7.10;99.90;;;;;;5026137;28;20699;-75
2022/04/05 02:16:11;;;;;;;3.17;0.68;;;7.10;99.90;;;;;;5012183;28;20044;-76
2022/04/05 02:18:37;;;;;;;1.33;0.68;;;7.10;99.90;;;;;;5007327;28;20478;-75
2022/04/05 02:21:05;;;;;;;1.13;0.85;;;7.10;99.90;;;;;;5026955;28;20076;-75
2022/04/05 02:23:31;;;;;;;1.33;1.20;;;7.10;99.90;;;;;;5009295;28;20077;-75
2022/04/05 02:25:57;;;;;;;7.97;2.45;;;7.20;99.90;;;;;;4991242;28;20094;-75
2022/04/05 02:28:23;;;;;;;7.63;0.82;;;7.10;99.90;;;;;;5007765;28;20041;-75
2022/04/05 02:30:49;;;;;;;15.32;2.15;;;7.20;99.90;;;;;;5006243;28;20038;-75
2022/04/05 02:33:14;;;;;;;0.57;0.57;;;7.20;99.90;;;;;;5007477;28;20128;-76
2022/04/05 02:35:40;;;;;;;6.88;2.28;;;7.10;99.90;;;;;;4990224;28;20530;-76
2022/04/05 02:38:06;;;;;;;1.88;1.70;;;7.10;99.90;;;;;;4991322;28;20049;-75
2022/04/05 02:40:31;;;;;;;1.95;1.45;;;7.20;99.90;;;;;;4991013;28;20037;-75
2022/04/05 02:42:57;;;;;;;0.73;0.73;;;7.20;99.90;;;;;;5006937;28;20069;-76
2022/04/05 02:45:23;;;;;;;10.65;3.75;;;7.20;99.90;;;;;;4990856;28;20038;-76
2022/04/05 02:47:49;;;;;;;0.60;0.60;;;7.10;99.90;;;;;;4991060;28;20034;-76
2022/04/05 02:50:18;;;;;;;0.73;0.73;;;7.20;99.90;;;;;;4988881;28;20041;-75
2022/04/05 02:52:48;;;;;;;0.88;0.88;;;7.10;99.90;;;;;;4982493;28;20046;-75
2022/04/05 02:55:14;;;;;;;1.27;1.15;;;7.10;99.90;;;;;;5000189;28;20049;-76
2022/04/05 02:57:41;;;;;;;2.17;0.88;;;7.10;99.90;;;;;;5005965;28;20042;-76
2022/04/05 03:00:08;;;;;;;4.80;1.27;;;7.20;99.90;;;;;;5007381;28;20104;-76
2022/04/05 03:02:35;;;;;;;5.90;2.05;;;7.20;99.90;;;;;;5023029;28;20034;-75
2022/04/05 03:05:01;;;;;;;15.98;1.85;;;7.20;99.90;;;;;;4990649;28;20077;-75
2022/04/05 03:07:28;;;;;;;2.30;1.38;;;7.20;99.90;;;;;;4991239;28;20401;-76
2022/04/05 03:09:53;;;;;;;6.47;1.98;;;7.20;99.90;;;;;;5006612;28;20045;-75
2022/04/05 03:12:19;;;;;;;15.18;2.40;;;7.10;99.90;;;;;;5006449;28;20104;-76
2022/04/05 03:14:45;;;;;;;7.43;1.73;;;7.10;99.90;;;;;;4990420;28;20124;-76
2022/04/05 03:17:12;;;;;;;1.15;1.10;;;7.10;99.90;;;;;;5006701;28;20033;-76
2022/04/05 03:19:38;;;;;;;9.00;3.17;;;7.10;99.90;;;;;;4985001;28;20116;-75
2022/04/05 03:22:05;;;;;;;0.63;0.63;;;7.10;99.90;;;;;;5006578;28;20505;-76
2022/04/05 03:24:31;;;;;;;1.90;0.40;;;7.10;99.90;;;;;;4992455;28;20137;-76
2022/04/05 03:26:58;;;;;;;1.13;0.60;;;7.10;99.90;;;;;;5009059;28;20095;-76
2022/04/05 03:29:23;;;;;;;0.20;0.20;;;7.10;99.90;;;;;;5010851;28;20140;-75
2022/04/05 03:31:49;;;;;;;6.18;1.77;;;7.00;99.90;;;;;;5009486;28;20140;-75
2022/04/05 03:34:15;;;;;;;1.38;1.13;;;7.00;99.90;;;;;;5021384;28;20045;-75
2022/04/05 03:36:43;;;;;;;0.30;0.30;;;7.00;99.90;;;;;;4994445;28;20599;-75
2022/04/05 03:39:14;;;;;;;6.75;2.05;;;7.00;99.90;;;;;;5012901;28;20041;-75
2022/04/05 03:41:44;;;;;;;0.80;0.80;;;7.00;99.90;;;;;;5013584;28;20397;-75
2022/04/05 03:44:10;;;;;;;10.95;2.72;;;7.00;99.90;;;;;;5010886;28;20057;-75
2022/04/05 03:46:36;;;;;;;0.43;0.43;;;7.00;99.90;;;;;;4994684;28;20576;-75
2022/04/05 03:49:01;;;;;;;1.60;1.33;;;7.00;99.90;;;;;;4995727;28;20077;-75
2022/04/05 03:51:28;;;;;;;0.95;0.57;;;6.90;99.90;;;;;;5013626;28;20052;-75
2022/04/05 03:53:56;;;;;;;1.33;1.00;;;6.90;99.90;;;;;;5009030;28;20509;-75
2022/04/05 03:56:23;;;;;;;0.57;0.57;;;6.90;99.90;;;;;;5012621;28;20527;-75
2022/04/05 03:58:49;;;;;;;0.82;0.82;;;6.90;99.90;;;;;;4997390;28;20061;-75
2022/04/05 04:01:15;;;;;;;0.40;0.40;;;6.90;99.90;;;;;;5013194;28;20068;-75
2022/04/05 04:03:41;;;;;;;0.50;0.50;;;6.90;99.90;;;;;;5025588;28;20505;-75
2022/04/05 04:06:06;;;;;;;5.13;2.40;;;6.90;99.90;;;;;;4997048;28;20128;-75
2022/04/05 04:08:32;;;;;;;1.75;1.17;;;6.90;99.90;;;;;;5012923;28;20049;-75
2022/04/05 04:10:58;;;;;;;13.90;1.65;;;7.00;99.90;;;;;;5024456;28;20507;-75
2022/04/05 04:13:23;;;;;;;0.60;0.60;;;7.00;99.90;;;;;;5012898;28;20582;-75
2022/04/05 04:15:49;;;;;;;0.90;0.90;;;6.90;99.90;;;;;;4996679;28;20049;-75
2022/04/05 04:18:14;;;;;;;4.97;1.02;;;6.90;99.90;;;;;;5007716;28;20047;-76
2022/04/05 04:20:42;;;;;;;4.63;1.20;;;6.90;99.90;;;;;;4996266;28;20146;-75
2022/04/05 04:23:09;;;;;;;3.72;1.40;;;6.90;99.90;;;;;;4996706;28;20033;-75
2022/04/05 04:25:37;;;;;;;1.20;0.75;;;6.90;99.90;;;;;;5012357;28;20127;-75
2022/04/05 04:28:05;;;;;;;5.25;0.98;;;6.90;99.90;;;;;;5012473;28;20045;-75
2022/04/05 04:30:34;;;;;;;2.45;1.15;;;6.90;99.90;;;;;;5013182;28;20056;-75
2022/04/05 04:33:01;;;;;;;1.23;1.02;;;6.90;99.90;;;;;;5012659;28;20041;-75
2022/04/05 04:35:28;;;;;;;8.30;3.45;;;6.90;99.90;;;;;;4995565;28;20128;-75
2022/04/05 04:37:54;;;;;;;3.33;0.75;;;6.90;99.90;;;;;;4995366;28;20411;-74
2022/04/05 04:40:20;;;;;;;7.88;1.25;;;6.80;99.90;;;;;;4996686;28;20048;-75
2022/04/05 04:42:46;;;;;;;0.88;0.88;;;6.80;99.90;;;;;;5024403;28;20084;-75
2022/04/05 04:45:12;;;;;;;4.95;1.30;;;6.80;99.90;;;;;;5013178;28;20044;-75
2022/04/05 04:47:38;;;;;;;3.03;1.65;;;6.70;99.90;;;;;;5011272;28;20409;-75
2022/04/05 04:50:06;;;;;;;0.30;0.30;;;6.70;99.90;;;;;;4995794;28;20405;-75
2022/04/05 04:52:31;;;;;;;0.30;0.30;;;6.70;99.90;;;;;;5012477;28;20493;-75
2022/04/05 04:54:57;;;;;;;0.40;0.40;;;6.60;99.90;;;;;;4996472;28;20071;-76
2022/04/05 04:57:23;;;;;;;1.75;1.20;;;6.60;99.90;;;;;;5012756;28;20129;-76
2022/04/05 04:59:49;;;;;;;0.50;0.50;;;6.60;99.90;;;;;;5012791;28;20378;-74
2022/04/05 05:02:15;;;;;;;0.73;0.73;;;6.60;99.90;;;;;;5012346;28;20056;-74
2022/04/05 05:04:41;;;;;;;2.95;1.35;;;6.60;99.90;;;;;;5012022;28;20612;-75
2022/04/05 05:07:06;;;;;;;4.25;0.50;;;6.60;99.90;;;;;;4995522;28;20049;-74
2022/04/05 05:09:33;;;;;;;0.30;0.30;;;6.60;99.90;;;;;;5010690;28;20037;-74
2022/04/05 05:12:00;;;;;;;0.73;0.73;;;6.60;99.90;;;;;;5008833;28;20346;-75
2022/04/05 05:14:27;;;;;;;0.30;0.30;;;6.60;99.90;;;;;;5023856;28;20053;-74
2022/04/05 05:16:55;;;;;;;0.30;0.30;;;6.60;99.90;;;;;;5010662;28;20092;-74
2022/04/05 05:19:21;;;;;;;3.30;0.75;;;6.70;99.90;;;;;;4995155;28;20043;-74
2022/04/05 05:21:47;;;;;;;1.55;1.15;;;6.70;99.90;;;;;;5012628;28;20120;-74
2022/04/05 05:24:12;;;;;;;0.35;0.35;;;6.70;99.90;;;;;;4994918;28;20099;-74
2022/04/05 05:26:39;;;;;;;0.38;0.38;;;6.80;99.90;;;;;;5006431;28;20107;-75
2022/04/05 05:29:04;;;;;;;0.73;0.73;;;6.80;99.90;;;;;;5016191;28;20375;-75
2022/04/05 05:31:30;;;;;;;0.40;0.40;;;6.80;99.90;;;;;;4995216;28;20462;-74
2022/04/05 05:33:55;;;;;;;1.00;1.00;;;6.80;99.90;;;;;;4996726;28;20128;-74
2022/04/05 05:36:22;;;;;;;0.60;0.60;;;6.80;99.90;;;;;;5005299;28;20050;-74
2022/04/05 05:38:47;;;;;;;3.22;1.48;;;6.80;99.90;;;;;;4995251;28;20044;-74
2022/04/05 05:41:13;;;;;;;0.30;0.30;;;6.90;99.90;;;;;;4995286;28;20418;-74
2022/04/05 05:43:40;;;;;;;1.15;1.05;;;6.90;99.90;;;;;;4995596;28;20103;-74
2022/04/05 05:46:06;;;;;;;0.50;0.50;;;6.90;99.90;;;;;;5011951;28;20049;-74
2022/04/05 05:48:33;;;;;;;0.55;0.55;;;6.90;99.90;;;;;;5010603;28;20059;-74
2022/04/05 05:50:59;;;;;;;0.38;0.38;;;6.90;99.90;;;;;;5007524;28;20442;-74
2022/04/05 05:53:25;;;;;;;0.95;0.95;;;6.90;99.90;;;;;;4994768;28;20135;-74
2022/04/05 05:55:50;;;;;;;2.28;1.50;;;6.90;99.90;;;;;;4994157;28;20100;-74
2022/04/05 05:58:16;;;;;;;26.58;3.70;;;6.90;99.90;;;;;;4993442;28;20401;-74
2022/04/05 06:00:42;;;;;;;0.70;0.70;;;7.00;99.90;;;;;;5005876;28;20038;-74
2022/04/05 06:03:10;;;;;;;1.48;0.80;;;7.00;99.90;;;;;;4988597;28;20057;-74
2022/04/05 06:05:36;;;;;;;0.55;0.55;;;7.00;99.90;;;;;;5010504;28;20081;-74
2022/04/05 06:08:04;;;;;;;0.52;0.52;;;7.00;99.90;;;;;;5010958;28;20045;-75
2022/04/05 06:10:30;;;;;;;3.65;0.85;;;7.10;99.90;;;;;;4994295;28;20048;-74
2022/04/05 06:12:57;;;;;;;0.20;0.20;;;7.10;99.90;;;;;;4994562;28;20045;-74
2022/04/05 06:15:25;;;;;;;0.30;0.30;;;7.10;99.90;;;;;;5007797;28;20102;-75
2022/04/05 06:17:51;;;;;;;4.72;1.60;;;7.20;99.90;;;;;;4993467;28;20033;-75
2022/04/05 06:20:19;;;;;;;0.52;0.52;;;7.20;99.90;;;;;;5010645;28;20041;-74
2022/04/05 06:22:46;;;;;;;0.30;0.30;;;7.20;99.90;;;;;;5010837;28;20048;-74
2022/04/05 06:25:14;;;;;;;0.73;0.73;;;7.30;99.90;;;;;;5009493;28;20059;-75
2022/04/05 06:27:40;;;;;;;1.58;1.05;;;7.30;99.90;;;;;;5010034;28;20404;-74
2022/04/05 06:30:08;;;;;;;0.90;0.90;;;7.40;99.90;;;;;;5007919;28;20174;-74
2022/04/05 06:32:34;;;;;;;0.57;0.57;;;7.40;99.90;;;;;;5026467;28;20056;-74
2022/04/05 06:35:02;;;;;;;1.70;1.10;;;7.50;99.90;;;;;;4994083;28;20519;-74
2022/04/05 06:37:27;;;;;;;2.88;0.88;;;7.50;99.90;;;;;;4993811;28;20437;-74
2022/04/05 06:39:53;;;;;;;0.55;0.55;;;7.50;99.90;;;;;;5008087;28;20038;-74
2022/04/05 06:42:20;;;;;;;2.13;1.30;;;7.50;99.90;;;;;;5006457;28;20087;-74
2022/04/05 06:44:45;;;;;;;3.53;0.98;;;7.60;99.90;;;;;;5007761;28;20591;-75
2022/04/05 06:47:11;;;;;;;0.40;0.40;;;7.60;99.90;;;;;;4994591;28;20526;-75
2022/04/05 06:49:38;;;;;;;0.50;0.50;;;7.70;99.90;;;;;;5010393;28;20056;-75
2022/04/05 06:52:04;;;;;;;6.65;1.90;;;7.80;99.90;;;;;;5006141;28;20403;-74
2022/04/05 06:54:30;;;;;;;0.55;0.55;;;7.90;99.90;;;;;;4981286;28;20144;-74
2022/04/05 06:56:55;;;;;;;0.38;0.38;;;8.00;99.90;;;;;;5009373;28;20144;-75
2022/04/05 06:59:21;;;;;;;4.68;1.17;;;8.00;99.90;;;;;;5006898;28;20055;-75
2022/04/05 07:01:47;;;;;;;0.50;0.50;;;8.00;99.90;;;;;;5006318;28;20508;-76
2022/04/05 07:04:12;;;;;;;4.93;2.33;;;8.00;99.90;;;;;;4993135;28;20047;-75
2022/04/05 07:06:38;;;;;;;8.77;2.05;;;7.90;99.90;;;;;;5008744;28;20041;-75
2022/04/05 07:09:05;;;;;;;0.32;0.32;;;7.90;99.90;;;;;;5007353;28;20037;-75
2022/04/05 07:11:31;;;;;;;11.35;2.40;;;7.90;99.90;;;;;;5009795;28;20526;-74
2022/04/05 07:13:57;;;;;;;0.22;0.22;;;7.80;99.90;;;;;;4994647;28;20056;-74
2022/04/05 07:16:23;;;;;;;0.95;0.88;;;7.80;99.90;;;;;;4997591;28;20349;-75
2022/04/05 07:18:49;;;;;;;0.38;0.38;;;7.70;99.90;;;;;;4994911;28;20049;-74
2022/04/05 07:21:15;;;;;;;0.55;0.55;;;7.70;99.90;;;;;;4995346;28;20036;-75
2022/04/05 07:23:44;;;;;;;1.40;0.90;;;7.70;99.90;;;;;;4992530;28;20151;-75
2022/04/05 07:26:10;;;;;;;0.43;0.43;;;7.80;99.90;;;;;;5025354;28;20135;-74
2022/04/05 07:28:36;;;;;;;3.30;1.85;;;7.80;99.90;;;;;;5000849;28;20080;-74
2022/04/05 07:31:02;;;;;;;1.63;0.55;;;7.90;99.90;;;;;;5006408;28;20038;-74
2022/04/05 07:33:28;;;;;;;0.50;0.50;;;7.90;99.90;;;;;;5011013;28;20045;-74
2022/04/05 07:35:54;;;;;;;0.90;0.50;;;7.90;99.90;;;;;;5006138;28;20042;-74
2022/04/05 07:38:20;;;;;;;4.75;1.83;;;8.00;99.90;;;;;;4992422;28;20482;-74
2022/04/05 07:40:48;;;;;;;2.20;1.00;;;8.00;99.90;;;;;;5008061;28;20645;-74
2022/04/05 07:43:25;;;;;;;0.55;0.55;;;8.00;99.90;;;;;;4996867;28;20045;-74
2022/04/05 07:45:51;;;;;;;0.40;0.40;;;8.00;99.90;;;;;;4985313;28;20037;-74
2022/04/05 07:48:21;;;;;;;1.95;1.42;;;8.00;99.90;;;;;;5009053;28;20159;-74
2022/04/05 07:50:48;;;;;;;0.30;0.30;;;8.00;99.90;;;;;;4992064;28;20054;-74
2022/04/05 07:53:14;;;;;;;4.88;0.60;;;8.00;99.90;;;;;;5008194;28;20081;-74
2022/04/05 07:55:39;;;;;;;0.63;0.63;;;8.00;99.90;;;;;;5002271;28;20088;-74
2022/04/05 07:58:05;;;;;;;0.47;0.47;;;8.00;99.90;;;;;;4995105;28;20540;-74
2022/04/05 08:00:31;;;;;;;0.30;0.30;;;8.00;99.90;;;;;;5020692;28;20034;-74
2022/04/05 08:02:57;;;;;;;0.75;0.75;;;8.00;99.90;;;;;;5006422;28;20117;-74
2022/04/05 08:05:24;;;;;;;1.30;0.77;;;8.10;99.90;;;;;;5008117;28;20120;-75
2022/04/05 08:07:50;;;;;;;0.93;0.93;;;8.10;99.90;;;;;;4995490;28;20041;-75
2022/04/05 08:10:16;;;;;;;7.65;1.27;;;8.10;99.90;;;;;;5004904;28;20049;-75
2022/04/05 08:12:44;;;;;;;0.85;0.85;;;8.20;99.90;;;;;;5010773;28;20046;-76
2022/04/05 08:15:15;;;;;;;1.30;1.08;;;8.30;99.90;;;;;;4994549;28;20502;-74
2022/04/05 08:17:40;;;;;;;0.50;0.50;;;8.30;99.90;;;;;;4993125;28;20034;-74
2022/04/05 08:20:07;;;;;;;0.50;0.50;;;8.40;99.90;;;;;;5010486;28;20037;-74
2022/04/05 08:22:33;;;;;;;0.50;0.50;;;8.40;99.90;;;;;;4993305;28;20037;-74
2022/04/05 08:24:59;;;;;;;0.50;0.50;;;8.50;99.90;;;;;;5004476;28;20068;-74
2022/04/05 08:27:24;;;;;;;0.68;0.68;;;8.50;99.90;;;;;;4991227;28;20050;-74
2022/04/05 08:29:50;;;;;;;0.50;0.50;;;8.60;99.90;;;;;;5006336;28;20053;-74
2022/04/05 08:32:16;;;;;;;0.28;0.28;;;8.70;99.90;;;;;;5002347;28;20037;-74
2022/04/05 08:34:42;;;;;;;0.75;0.75;;;8.70;99.90;;;;;;4988152;28;20037;-74
2022/04/05 08:37:13;;;;;;;1.80;1.35;;;8.80;99.90;;;;;;5006055;28;20038;-74
2022/04/05 08:39:40;;;;;;;0.30;0.30;;;8.80;99.90;;;;;;5009905;28;20072;-74
2022/04/05 08:42:06;;;;;;;2.63;0.95;;;8.80;99.90;;;;;;5009721;28;20121;-74
2022/04/05 08:44:33;;;;;;;0.40;0.40;;;8.80;99.90;;;;;;4988043;28;20046;-74
2022/04/05 08:47:03;;;;;;;0.40;0.40;;;8.70;99.90;;;;;;5019580;28;20539;-74
2022/04/05 08:49:30;;;;;;;2.08;1.42;;;8.70;99.90;;;;;;5007071;28;20486;-74
2022/04/05 08:51:56;;;;;;;0.57;0.57;;;8.80;99.90;;;;;;4989137;28;20046;-74
2022/04/05 08:54:23;;;;;;;1.02;1.00;;;9.00;99.90;;;;;;5025612;28;21673;-74
2022/04/05 08:56:50;;;;;;;1.92;0.93;;;9.00;99.90;;;;;;5007742;28;20041;-74
2022/04/05 08:59:16;;;;;;;7.10;2.60;;;9.00;99.90;;;;;;4999909;28;20766;-74
2022/04/05 09:01:42;;;;;;;1.98;0.82;;;9.00;99.90;;;;;;5011397;28;20034;-74
2022/04/05 09:04:10;;;;;;;0.47;0.47;;;9.00;99.90;;;;;;5009769;28;20044;-74
2022/04/05 09:06:36;;;;;;;0.20;0.20;;;9.00;99.90;;;;;;5011278;28;20076;-74
2022/04/05 09:09:18;;;;;;;1.33;1.23;;;9.00;99.90;;;;;;4993151;28;20112;-74
2022/04/05 09:11:46;;;;;;;4.32;0.80;;;9.00;99.90;;;;;;5012068;28;20045;-74
2022/04/05 09:14:12;;;;;;;0.57;0.57;;;9.00;99.90;;;;;;4985899;28;20041;-74
2022/04/05 09:16:38;;;;;;;0.20;0.20;;;9.00;99.90;;;;;;5003586;28;20440;-74
2022/04/05 09:19:11;;;;;;;1.23;0.70;;;9.00;99.90;;;;;;5005738;28;20269;-74
2022/04/05 09:22:01;;;;;;;0.80;0.80;;;9.00;99.90;;;;;;5006122;28;20041;-74
2022/04/05 09:24:38;;;;;;;0.50;0.50;;;8.90;99.90;;;;;;5020032;28;20498;-73
2022/04/05 09:27:05;;;;;;;0.30;0.30;;;8.80;99.90;;;;;;5027145;28;20041;-73
2022/04/05 09:29:47;;;;;;;0.68;0.68;;;8.80;99.90;;;;;;5004051;28;20083;-74
2022/04/05 09:32:32;;;;;;;1.08;1.05;;;8.90;99.90;;;;;;4989199;28;20048;-74
2022/04/05 09:34:57;;;;;;;0.60;0.60;;;8.80;99.90;;;;;;5007733;28;20064;-73
2022/04/05 09:37:28;;;;;;;0.73;0.63;;;8.80;99.90;;;;;;4980825;28;20037;-74
2022/04/05 09:40:14;;;;;;;4.03;0.65;;;8.90;99.90;;;;;;5006151;28;20034;-74
2022/04/05 09:43:01;;;;;;;0.30;0.30;;;8.90;99.90;;;;;;5001864;28;20163;-74
2022/04/05 09:45:45;;;;;;;2.65;1.25;;;8.80;99.90;;;;;;5020555;28;20052;-73
2022/04/05 09:48:11;;;;;;;0.80;0.80;;;8.80;99.90;;;;;;4990545;28;20544;-73
2022/04/05 09:51:00;;;;;;;0.50;0.50;;;8.80;99.90;;;;;;4994994;28;20041;-73
2022/04/05 09:53:46;;;;;;;0.55;0.55;;;8.70;99.90;;;;;;4991021;28;20356;-73
2022/04/05 09:56:24;;;;;;;0.40;0.40;;;8.70;99.90;;;;;;5012906;28;20037;-73
2022/04/05 09:58:52;;;;;;;0.30;0.30;;;8.70;99.90;;;;;;5006781;28;20607;-74
2022/04/05 10:01:22;;;;;;;0.50;0.50;;;8.60;99.90;;;;;;4992139;28;20481;-73
2022/04/05 10:04:03;;;;;;;0.35;0.35;;;8.70;99.90;;;;;;4986269;28;20037;-74
2022/04/05 10:06:30;;;;;;;8.05;1.25;;;8.60;99.90;;;;;;5025639;28;20045;-74
2022/04/05 10:08:57;;;;;;;0.52;0.52;;;8.60;99.90;;;;;;5009137;28;20049;-74
2022/04/05 10:11:28;;;;;;;0.30;0.30;;;8.70;99.90;;;;;;4998860;28;20077;-74
2022/04/05 10:13:55;;;;;;;11.38;1.05;;;8.80;99.90;;;;;;4991980;28;20050;-74
2022/04/05 10:16:29;;;;;;;0.57;0.57;;;8.70;99.90;;;;;;5007505;28;20076;-74
2022/04/05 10:19:13;;;;;;;0.30;0.30;;;8.80;99.90;;;;;;5001937;28;20127;-74
2022/04/05 10:21:41;;;;;;;0.30;0.30;;;8.90;99.90;;;;;;5011907;28;20077;-74
2022/04/05 10:24:08;;;;;;;0.50;0.50;;;9.00;99.90;;;;;;5005011;28;20041;-74
2022/04/05 10:26:44;;;;;;;0.77;0.77;;;9.00;99.90;;;;;;5007909;28;20192;-74
2022/04/05 10:29:14;;;;;;;0.50;0.43;;;9.10;99.90;;;;;;5029963;28;20041;-74
2022/04/05 10:32:12;;;;;;;0.63;0.63;;;9.10;99.90;;;;;;5002466;28;20482;-74
2022/04/05 10:34:46;;;;;;;2.72;0.60;;;9.20;99.90;;;;;;5006185;28;20091;-74
2022/04/05 10:37:28;;;;;;;0.77;0.77;;;9.20;99.90;;;;;;5005301;28;20044;-74
2022/04/05 10:39:56;;;;;;;0.30;0.30;;;9.20;99.90;;;;;;4998491;28;20041;-74
2022/04/05 10:42:25;;;;;;;0.85;0.85;;;9.30;99.90;;;;;;5003953;28;20083;-75
2022/04/05 10:44:53;;;;;;;0.80;0.80;;;9.30;99.90;;;;;;5000477;28;20046;-74
2022/04/05 10:47:19;;;;;;;0.40;0.40;;;9.30;99.90;;;;;;5005872;28;20037;-74
2022/04/05 10:49:47;;;;;;;0.22;0.22;;;9.30;99.90;;;;;;5004256;28;20045;-74
2022/04/05 10:52:39;;;;;;;0.63;0.63;;;9.40;99.90;;;;;;5009148;28;20041;-74
2022/04/05 10:55:08;;;;;;;1.38;0.63;;;9.30;99.90;;;;;;5003368;28;20049;-75
2022/04/05 10:57:35;;;;;;;0.85;0.85;;;9.50;99.90;;;;;;5004702;28;20146;-75
2022/04/05 11:00:21;;;;;;;0.47;0.47;;;9.50;99.90;;;;;;4988860;28;20037;-75
2022/04/05 11:02:58;;;;;;;0.60;0.60;;;9.70;99.90;;;;;;5020764;28;20075;-75
2022/04/05 11:05:32;;;;;;;5.75;0.65;;;9.90;99.90;;;;;;5024643;28;20045;-74
2022/04/05 11:07:57;;;;;;;1.75;0.60;;;10.10;99.90;;;;;;4988473;28;20045;-76
2022/04/05 11:10:30;;;;;;;1.75;0.77;;;10.20;99.90;;;;;;4987208;28;20177;-75
2022/04/05 11:13:09;;;;;;;0.55;0.55;;;10.30;99.90;;;;;;5004524;28;20041;-75
2022/04/05 11:15:40;;;;;;;0.77;0.77;;;10.50;99.90;;;;;;4985844;28;20050;-75
2022/04/05 11:18:10;;;;;;;0.60;0.60;;;10.60;99.90;;;;;;4983813;28;20037;-75
2022/04/05 11:20:38;;;;;;;0.60;0.60;;;10.70;99.90;;;;;;4987146;28;20042;-76
2022/04/05 11:23:05;;;;;;;0.30;0.30;;;10.60;99.90;;;;;;5012681;28;20041;-73
2022/04/05 11:25:31;;;;;;;0.30;0.30;;;10.50;99.90;;;;;;5005597;28;20061;-74
2022/04/05 11:28:17;;;;;;;1.13;1.02;;;10.50;99.90;;;;;;4991390;28;20107;-74
2022/04/05 11:30:50;;;;;;;1.10;0.95;;;10.60;99.90;;;;;;5003672;28;20085;-74
2022/04/05 11:33:35;;;;;;;8.70;2.05;;;10.80;99.90;;;;;;5021995;28;20053;-74
2022/04/05 11:36:10;;;;;;;0.70;0.70;;;10.90;99.90;;;;;;5006484;28;20405;-74
2022/04/05 11:38:48;;;;;;;1.02;0.93;;;10.90;99.90;;;;;;4991083;28;20057;-74
2022/04/05 11:41:23;;;;;;;0.88;0.88;;;10.80;99.90;;;;;;4992411;28;20393;-74
2022/04/05 11:43:52;;;;;;;0.70;0.70;;;10.80;99.90;;;;;;4987058;28;20038;-74
2022/04/05 11:46:19;;;;;;;2.47;1.30;;;10.80;99.90;;;;;;4997724;28;20054;-74
2022/04/05 11:48:47;;;;;;;0.60;0.60;;;10.90;99.90;;;;;;4987020;28;20040;-75
2022/04/05 11:51:15;;;;;;;1.05;1.02;;;11.00;99.90;;;;;;4994968;28;20065;-74
2022/04/05 11:53:42;;;;;;;0.80;0.80;;;11.00;99.90;;;;;;4989985;28;20402;-74
2022/04/05 11:56:17;;;;;;;0.82;0.82;;;11.00;99.90;;;;;;5002714;28;20041;-74
2022/04/05 11:58:49;;;;;;;0.90;0.90;;;11.00;99.90;;;;;;5026047;28;20120;-74
2022/04/05 12:01:29;;;;;;;0.93;0.93;;;11.00;99.90;;;;;;5003195;28;20455;-74
2022/04/05 12:03:57;;;;;;;0.32;0.32;;;11.00;99.90;;;;;;5024233;28;20083;-74
2022/04/05 12:06:29;;;;;;;0.60;0.60;;;11.00;99.90;;;;;;5006152;28;20091;-74
2022/04/05 12:08:57;;;;;;;0.32;0.32;;;11.00;99.90;;;;;;5020323;28;20045;-75
2022/04/05 12:11:24;;;;;;;0.22;0.22;;;10.90;99.90;;;;;;5005610;28;20080;-74
2022/04/05 12:13:56;;;;;;;0.20;0.20;;;11.00;99.90;;;;;;5012722;28;21987;-74
2022/04/05 12:16:24;;;;;;;0.80;0.80;;;11.00;99.90;;;;;;5008301;28;20428;-74
2022/04/05 12:18:51;;;;;;;0.57;0.57;;;11.10;99.90;;;;;;5006245;28;20100;-74
2022/04/05 12:21:18;;;;;;;1.02;0.70;;;11.10;99.90;;;;;;5012973;28;20067;-74
2022/04/05 12:23:44;;;;;;;0.20;0.20;;;11.00;99.90;;;;;;5010490;28;20044;-75
2022/04/05 12:26:15;;;;;;;0.32;0.32;;;11.00;99.90;;;;;;5012526;28;20063;-75
2022/04/05 12:28:43;;;;;;;1.33;1.23;;;11.00;99.90;;;;;;5009987;28;20115;-74
2022/04/05 12:31:17;;;;;;;2.15;1.30;;;11.10;99.90;;;;;;5012109;28;20098;-75
2022/04/05 12:34:15;;;;;;;0.40;0.40;;;11.20;99.90;;;;;;4994562;28;20124;-74
2022/04/05 12:36:45;;;;;;;0.93;0.93;;;11.20;99.90;;;;;;5013476;28;20077;-74
2022/04/05 12:39:21;;;;;;;1.20;1.10;;;11.20;99.90;;;;;;5004781;28;21171;-75
2022/04/05 12:41:49;;;;;;;2.45;2.22;;;11.10;99.90;;;;;;5009290;28;20099;-74
2022/04/05 12:44:16;;;;;;;0.70;0.70;;;11.10;99.90;;;;;;4996117;28;20045;-74
2022/04/05 12:47:04;;;;;;;1.48;1.10;;;11.00;99.90;;;;;;5012256;28;20123;-74
2022/04/05 12:49:34;;;;;;;1.60;1.50;;;10.90;99.90;;;;;;5002810;28;20050;-73
2022/04/05 12:52:23;;;;;;;2.42;1.40;;;10.90;99.90;;;;;;4995253;28;20037;-74
2022/04/05 12:55:00;;;;;;;1.08;1.02;;;10.90;99.90;;;;;;5004540;28;20048;-74
2022/04/05 12:57:40;;;;;;;2.85;1.60;;;10.80;99.90;;;;;;5008631;28;20049;-74
2022/04/05 13:00:14;;;;;;;5.95;3.05;;;10.70;99.90;;;;;;5010315;28;20049;-73
2022/04/05 13:02:44;;;;;;;1.38;0.88;;;10.60;99.90;;;;;;5006092;28;20132;-74